Time;durP1;ratioP1;P1;durP2;ratioP2;P2;SDS_P1;SDS_P2;PMS_P1;PMS_P2;Temp;Humidity;BMP_temperature;BMP_pressure;BME280_temperature;BME280_humidity;BME280_pressure;Samples;Min_cycle;Max_cycle;Signal;HPM_P1;HPM_P2
2021/06/08 00:00:19;;;;;;;3.28;3.08;;;15.00;98.00;;;;;;5017182;28;20185;-68
2021/06/08 00:02:45;;;;;;;5.40;2.53;;;14.90;97.80;;;;;;5018983;28;20176;-68
2021/06/08 00:05:11;;;;;;;3.70;3.50;;;14.90;97.90;;;;;;5024929;28;20184;-68
2021/06/08 00:07:37;;;;;;;3.58;3.28;;;14.80;97.90;;;;;;5021971;28;20177;-68
2021/06/08 00:10:04;;;;;;;3.47;3.28;;;14.80;97.80;;;;;;5022522;28;20176;-67
2021/06/08 00:12:30;;;;;;;2.97;2.80;;;14.80;97.80;;;;;;5017008;28;20323;-69
2021/06/08 00:14:55;;;;;;;3.70;3.20;;;14.80;97.80;;;;;;5027114;28;20326;-68
2021/06/08 00:17:21;;;;;;;6.05;3.60;;;14.80;97.80;;;;;;5027292;28;20192;-68
2021/06/08 00:19:47;;;;;;;3.45;3.25;;;14.80;98.10;;;;;;5023763;28;20214;-67
2021/06/08 00:22:13;;;;;;;3.42;3.22;;;14.80;98.30;;;;;;5024498;28;20588;-68
2021/06/08 00:24:39;;;;;;;3.65;3.38;;;14.80;98.30;;;;;;5021958;28;20215;-67
2021/06/08 00:27:05;;;;;;;2.92;2.78;;;14.80;98.20;;;;;;5024287;28;20592;-68
2021/06/08 00:29:30;;;;;;;3.85;3.55;;;14.80;98.10;;;;;;5023490;28;20188;-67
2021/06/08 00:31:56;;;;;;;3.95;3.45;;;14.80;98.00;;;;;;5028443;28;20251;-68
2021/06/08 00:34:23;;;;;;;4.40;3.58;;;14.80;98.00;;;;;;5028409;28;20366;-68
2021/06/08 00:36:49;;;;;;;3.65;3.42;;;14.80;98.20;;;;;;5024514;28;20258;-68
2021/06/08 00:39:14;;;;;;;3.35;3.15;;;14.70;98.30;;;;;;5018260;28;20181;-67
2021/06/08 00:41:44;;;;;;;4.07;3.78;;;14.70;98.40;;;;;;5020805;28;20192;-69
2021/06/08 00:44:13;;;;;;;3.45;2.83;;;14.70;98.10;;;;;;5019692;28;20679;-67
2021/06/08 00:46:40;;;;;;;3.17;3.03;;;14.60;98.20;;;;;;5023567;28;20187;-67
2021/06/08 00:49:06;;;;;;;3.30;3.10;;;14.60;98.40;;;;;;5020197;28;20185;-68
2021/06/08 00:51:32;;;;;;;3.33;3.22;;;14.60;98.50;;;;;;5023046;28;20196;-69
2021/06/08 00:54:05;;;;;;;3.22;3.03;;;14.50;98.50;;;;;;5019628;28;20188;-68
2021/06/08 00:56:35;;;;;;;3.78;3.47;;;14.50;98.50;;;;;;5025481;28;20180;-69
2021/06/08 00:59:01;;;;;;;2.90;2.80;;;14.50;98.50;;;;;;5020854;28;20180;-69
2021/06/08 01:01:27;;;;;;;3.58;3.30;;;14.50;98.50;;;;;;5021673;28;20282;-68
2021/06/08 01:03:52;;;;;;;3.60;3.33;;;14.50;98.50;;;;;;5020911;28;20191;-69
2021/06/08 01:06:18;;;;;;;3.13;2.90;;;14.40;98.50;;;;;;5024310;28;20287;-68
2021/06/08 01:08:45;;;;;;;3.28;3.08;;;14.40;98.50;;;;;;5019155;28;20188;-68
2021/06/08 01:11:11;;;;;;;3.72;3.53;;;14.40;98.50;;;;;;5018639;28;20189;-68
2021/06/08 01:13:37;;;;;;;3.63;3.42;;;14.40;98.30;;;;;;5019368;28;20227;-68
2021/06/08 01:16:03;;;;;;;2.78;2.67;;;14.40;98.20;;;;;;5022642;28;20609;-69
2021/06/08 01:18:29;;;;;;;4.03;2.58;;;14.30;98.20;;;;;;5019260;28;20725;-68
2021/06/08 01:21:07;;;;;;;3.50;3.35;;;14.30;98.30;;;;;;5024763;28;20653;-68
2021/06/08 01:23:34;;;;;;;3.08;2.97;;;14.30;98.30;;;;;;5020980;28;20571;-68
2021/06/08 01:26:00;;;;;;;3.72;3.53;;;14.30;98.50;;;;;;5019257;28;20561;-69
2021/06/08 01:28:26;;;;;;;3.45;3.25;;;14.30;98.50;;;;;;5026016;28;20188;-69
2021/06/08 01:30:54;;;;;;;5.35;3.83;;;14.20;98.50;;;;;;5027030;28;20785;-68
2021/06/08 01:33:25;;;;;;;3.92;3.63;;;14.20;98.50;;;;;;5021177;28;20764;-69
2021/06/08 01:35:52;;;;;;;4.63;3.70;;;14.20;98.40;;;;;;5016773;28;20294;-69
2021/06/08 01:38:20;;;;;;;4.28;3.97;;;14.20;98.50;;;;;;5020728;28;20180;-68
2021/06/08 01:40:48;;;;;;;3.75;3.45;;;14.10;98.50;;;;;;5019187;28;20712;-68
2021/06/08 01:43:15;;;;;;;4.47;4.07;;;14.10;98.50;;;;;;5022370;28;20191;-67
2021/06/08 01:45:42;;;;;;;4.90;4.60;;;14.10;98.50;;;;;;5017370;28;20181;-66
2021/06/08 01:48:08;;;;;;;4.65;4.38;;;14.10;98.50;;;;;;5019731;28;20193;-67
2021/06/08 01:50:36;;;;;;;3.78;3.60;;;14.10;98.50;;;;;;5017032;28;20714;-68
2021/06/08 01:53:26;;;;;;;4.75;4.45;;;14.10;98.50;;;;;;5020920;28;20220;-67
2021/06/08 01:55:59;;;;;;;6.38;4.47;;;14.10;98.50;;;;;;5020216;28;20268;-68
2021/06/08 01:59:19;;;;;;;4.60;4.28;;;14.00;98.50;;;;;;5026186;28;20188;-68
2021/06/08 02:02:07;;;;;;;3.70;3.50;;;14.00;98.50;;;;;;4980304;28;20186;-67
2021/06/08 02:05:13;;;;;;;5.72;4.13;;;14.10;98.50;;;;;;4981052;28;20244;-66
2021/06/08 02:07:58;;;;;;;3.88;3.67;;;14.10;98.50;;;;;;4906105;29;20196;-67
2021/06/08 02:10:54;;;;;;;3.67;3.50;;;14.10;98.50;;;;;;4907586;29;20306;-69
2021/06/08 02:13:43;;;;;;;4.28;4.00;;;14.20;98.50;;;;;;4904219;29;20232;-69
2021/06/08 02:16:14;;;;;;;3.97;3.63;;;14.20;98.50;;;;;;4906825;29;20244;-66
2021/06/08 02:18:42;;;;;;;4.88;4.47;;;14.20;98.50;;;;;;4907317;29;20422;-67
2021/06/08 02:21:10;;;;;;;7.25;6.00;;;14.30;98.50;;;;;;4895246;29;20237;-67
2021/06/08 02:23:37;;;;;;;7.90;6.25;;;14.30;98.50;;;;;;4901320;29;20204;-67
2021/06/08 02:26:04;;;;;;;9.80;6.50;;;14.30;98.50;;;;;;4911000;29;20215;-67
2021/06/08 02:28:34;;;;;;;12.98;7.78;;;14.30;98.50;;;;;;4902217;29;20978;-67
2021/06/08 02:31:03;;;;;;;10.95;6.85;;;14.40;98.50;;;;;;4909520;29;20204;-67
2021/06/08 02:33:29;;;;;;;8.90;6.60;;;14.30;98.50;;;;;;4910648;29;20224;-66
2021/06/08 02:35:56;;;;;;;8.38;6.22;;;14.30;98.50;;;;;;4931845;28;20195;-66
2021/06/08 02:38:23;;;;;;;11.38;8.30;;;14.30;98.50;;;;;;4947127;29;20246;-67
2021/06/08 02:40:50;;;;;;;11.48;8.02;;;14.30;98.50;;;;;;4944756;28;20214;-66
2021/06/08 02:43:20;;;;;;;12.07;7.90;;;14.30;98.50;;;;;;4942384;28;20703;-66
2021/06/08 02:45:46;;;;;;;12.48;8.38;;;14.30;98.50;;;;;;5022400;28;20283;-66
2021/06/08 02:48:15;;;;;;;10.32;6.57;;;14.40;98.50;;;;;;5021224;28;20189;-66
2021/06/08 02:50:44;;;;;;;12.75;7.80;;;14.40;98.50;;;;;;5022407;28;20623;-66
2021/06/08 02:53:10;;;;;;;10.20;7.45;;;14.30;98.50;;;;;;5024755;28;20629;-67
2021/06/08 02:55:38;;;;;;;11.93;8.25;;;14.30;98.50;;;;;;5026838;28;20183;-66
2021/06/08 02:58:06;;;;;;;9.93;7.30;;;14.30;98.50;;;;;;5028157;28;20617;-66
2021/06/08 03:00:31;;;;;;;11.07;7.13;;;14.30;98.50;;;;;;5029610;28;20192;-67
2021/06/08 03:03:02;;;;;;;9.00;7.00;;;14.30;98.50;;;;;;5019794;28;20213;-67
2021/06/08 03:05:38;;;;;;;7.90;6.85;;;14.30;98.50;;;;;;5020658;28;20172;-66
2021/06/08 03:08:13;;;;;;;9.75;5.85;;;14.30;98.50;;;;;;5028486;28;20724;-66
2021/06/08 03:10:41;;;;;;;10.75;6.20;;;14.30;98.50;;;;;;5021884;28;20180;-66
2021/06/08 03:13:08;;;;;;;6.68;5.75;;;14.40;98.50;;;;;;5027345;28;20216;-67
2021/06/08 03:15:38;;;;;;;9.00;6.43;;;14.40;98.50;;;;;;5019323;28;20180;-66
2021/06/08 03:18:08;;;;;;;7.00;5.50;;;14.40;98.50;;;;;;5023717;28;20181;-67
2021/06/08 03:20:39;;;;;;;7.45;5.68;;;14.40;98.50;;;;;;5023923;28;20196;-68
2021/06/08 03:23:08;;;;;;;6.00;5.40;;;14.40;98.50;;;;;;5018979;28;20200;-67
2021/06/08 03:25:35;;;;;;;6.82;5.57;;;14.30;98.50;;;;;;5021610;28;20812;-67
2021/06/08 03:28:02;;;;;;;6.43;5.28;;;14.30;98.50;;;;;;5020267;28;20275;-67
2021/06/08 03:30:29;;;;;;;5.60;5.13;;;14.30;98.50;;;;;;5024882;28;20172;-67
2021/06/08 03:32:56;;;;;;;10.00;5.90;;;14.30;98.50;;;;;;5019123;28;20216;-67
2021/06/08 03:35:23;;;;;;;6.63;5.95;;;14.20;98.50;;;;;;5021261;28;20655;-68
2021/06/08 03:37:51;;;;;;;7.72;6.28;;;14.20;98.50;;;;;;5022900;28;20192;-68
2021/06/08 03:40:18;;;;;;;10.65;5.30;;;14.20;98.50;;;;;;5018291;28;20288;-67
2021/06/08 03:42:45;;;;;;;7.82;6.15;;;14.20;98.50;;;;;;5024139;28;20933;-68
2021/06/08 03:45:16;;;;;;;8.88;5.35;;;14.20;98.50;;;;;;5036931;28;20184;-68
2021/06/08 03:47:43;;;;;;;5.38;4.88;;;14.20;98.50;;;;;;5031924;28;20512;-68
2021/06/08 03:50:12;;;;;;;5.80;5.20;;;14.30;98.50;;;;;;5032671;28;20263;-68
2021/06/08 03:52:38;;;;;;;7.82;5.43;;;14.30;98.50;;;;;;5030286;28;20216;-68
2021/06/08 03:55:05;;;;;;;9.02;6.70;;;14.30;98.50;;;;;;5031286;28;20272;-68
2021/06/08 03:57:38;;;;;;;7.43;6.25;;;14.40;98.50;;;;;;5028145;28;20184;-67
2021/06/08 04:00:05;;;;;;;8.93;6.47;;;14.40;98.50;;;;;;5041795;28;21074;-70
2021/06/08 04:02:31;;;;;;;7.82;6.35;;;14.50;98.50;;;;;;5027439;28;20708;-71
2021/06/08 04:04:57;;;;;;;6.25;5.07;;;14.50;98.50;;;;;;5029103;28;20193;-71
2021/06/08 04:07:23;;;;;;;9.00;6.93;;;14.50;98.50;;;;;;5027256;28;20185;-70
2021/06/08 04:09:50;;;;;;;9.15;7.07;;;14.60;98.50;;;;;;5026825;28;20267;-70
2021/06/08 04:12:21;;;;;;;6.97;6.13;;;14.60;98.50;;;;;;5024765;28;20212;-70
2021/06/08 04:14:48;;;;;;;7.10;6.32;;;14.70;98.50;;;;;;5031342;28;20188;-70
2021/06/08 04:17:16;;;;;;;7.97;6.47;;;14.70;98.50;;;;;;5025941;28;20192;-70
2021/06/08 04:19:43;;;;;;;12.55;7.68;;;14.70;98.50;;;;;;5030570;28;20188;-70
2021/06/08 04:22:09;;;;;;;11.18;7.80;;;14.70;98.50;;;;;;5036988;28;20195;-70
2021/06/08 04:24:35;;;;;;;10.60;8.00;;;14.80;98.50;;;;;;5035983;28;20184;-70
2021/06/08 04:27:00;;;;;;;10.65;7.38;;;14.90;98.50;;;;;;5035203;28;20186;-71
2021/06/08 04:29:27;;;;;;;12.32;8.07;;;14.90;98.50;;;;;;5034352;28;20192;-71
2021/06/08 04:31:55;;;;;;;10.93;8.98;;;15.00;98.50;;;;;;5029440;28;20176;-71
2021/06/08 04:34:22;;;;;;;13.68;9.70;;;15.00;98.40;;;;;;5027054;28;20547;-70
2021/06/08 04:36:49;;;;;;;11.63;7.78;;;15.00;98.50;;;;;;5016658;28;20188;-70
2021/06/08 04:39:15;;;;;;;10.48;7.97;;;15.10;98.40;;;;;;5017003;28;20938;-71
2021/06/08 04:41:41;;;;;;;12.68;8.40;;;15.10;98.30;;;;;;5017830;28;20630;-70
2021/06/08 04:44:07;;;;;;;13.63;8.35;;;15.10;98.50;;;;;;5020773;28;20200;-71
2021/06/08 04:46:41;;;;;;;10.50;8.20;;;15.10;98.50;;;;;;5024905;28;20183;-71
2021/06/08 04:49:07;;;;;;;13.10;10.18;;;15.20;98.20;;;;;;5018194;28;20180;-71
2021/06/08 04:51:34;;;;;;;15.50;10.05;;;15.30;98.30;;;;;;5013643;28;20544;-70
2021/06/08 04:54:00;;;;;;;12.15;10.02;;;15.30;98.10;;;;;;5022632;28;20192;-71
2021/06/08 04:56:26;;;;;;;14.32;9.68;;;15.40;98.00;;;;;;5023569;28;20180;-70
2021/06/08 04:58:52;;;;;;;12.68;9.82;;;15.40;97.70;;;;;;5018023;28;20183;-70
2021/06/08 05:01:29;;;;;;;15.40;10.63;;;15.50;97.50;;;;;;5023731;28;20181;-71
2021/06/08 05:04:11;;;;;;;13.73;9.30;;;15.60;97.20;;;;;;5023458;28;20267;-70
2021/06/08 05:06:43;;;;;;;12.95;9.77;;;15.70;97.00;;;;;;5019824;28;20180;-69
2021/06/08 05:09:14;;;;;;;15.07;10.35;;;15.70;97.30;;;;;;5019521;28;20246;-70
2021/06/08 05:11:49;;;;;;;15.68;10.70;;;15.80;97.30;;;;;;5024901;28;20192;-70
2021/06/08 05:14:16;;;;;;;15.68;10.35;;;15.80;96.60;;;;;;5015379;28;20561;-70
2021/06/08 05:16:48;;;;;;;12.23;10.05;;;15.90;97.20;;;;;;5014642;28;20207;-70
2021/06/08 05:19:15;;;;;;;11.18;9.60;;;16.00;96.70;;;;;;5009499;28;20185;-70
2021/06/08 05:21:45;;;;;;;16.85;10.57;;;16.10;96.50;;;;;;5015613;28;20207;-70
2021/06/08 05:24:12;;;;;;;15.27;9.40;;;16.20;96.20;;;;;;5014646;28;20217;-68
2021/06/08 05:26:40;;;;;;;11.60;9.15;;;16.30;96.00;;;;;;5015901;28;20184;-68
2021/06/08 05:29:09;;;;;;;9.60;7.68;;;16.40;95.40;;;;;;5017275;28;20732;-68
2021/06/08 05:31:35;;;;;;;9.60;8.13;;;16.40;95.00;;;;;;5023825;28;20176;-68
2021/06/08 05:34:01;;;;;;;9.57;8.13;;;16.50;95.00;;;;;;5019797;28;20207;-69
2021/06/08 05:36:36;;;;;;;7.88;7.03;;;16.60;94.70;;;;;;5022985;28;20273;-69
2021/06/08 05:39:04;;;;;;;9.30;8.45;;;16.60;93.90;;;;;;5024867;28;20658;-70
2021/06/08 05:41:29;;;;;;;10.63;8.75;;;16.70;93.50;;;;;;5020192;28;20263;-70
2021/06/08 05:43:56;;;;;;;8.90;7.70;;;16.70;93.60;;;;;;5015126;28;20407;-69
2021/06/08 05:46:22;;;;;;;10.65;8.07;;;16.70;93.40;;;;;;5027209;28;20768;-69
2021/06/08 05:48:48;;;;;;;8.35;7.28;;;16.70;93.00;;;;;;5020638;28;20780;-71
2021/06/08 05:51:14;;;;;;;8.85;7.53;;;16.70;93.30;;;;;;5016891;28;20264;-70
2021/06/08 05:53:44;;;;;;;9.32;7.63;;;16.70;93.50;;;;;;5028377;28;20215;-69
2021/06/08 05:56:11;;;;;;;8.05;7.25;;;16.70;93.00;;;;;;5021783;28;20188;-70
2021/06/08 05:58:37;;;;;;;11.10;8.27;;;16.70;93.00;;;;;;5029539;28;20172;-69
2021/06/08 06:01:04;;;;;;;8.20;7.40;;;16.60;92.70;;;;;;5023463;28;20180;-70
2021/06/08 06:03:33;;;;;;;10.40;8.40;;;16.60;92.80;;;;;;5024868;28;20176;-69
2021/06/08 06:05:59;;;;;;;9.32;8.40;;;16.60;93.10;;;;;;5023098;28;20218;-71
2021/06/08 06:08:27;;;;;;;10.25;7.13;;;16.60;93.70;;;;;;5023436;28;20180;-71
2021/06/08 06:10:53;;;;;;;8.90;7.80;;;16.60;93.20;;;;;;5031121;28;20180;-69
2021/06/08 06:13:25;;;;;;;18.05;7.32;;;16.60;93.40;;;;;;5024420;28;20208;-69
2021/06/08 06:15:52;;;;;;;9.98;7.78;;;16.70;93.80;;;;;;5020498;28;20664;-71
2021/06/08 06:18:19;;;;;;;9.07;7.70;;;16.80;93.80;;;;;;5025232;28;20188;-71
2021/06/08 06:20:46;;;;;;;8.85;7.60;;;17.00;93.90;;;;;;5018638;28;20189;-70
2021/06/08 06:23:19;;;;;;;9.65;7.03;;;17.10;93.70;;;;;;5030259;28;21041;-71
2021/06/08 06:25:46;;;;;;;10.90;7.57;;;17.30;93.20;;;;;;5023022;28;20788;-70
2021/06/08 06:28:15;;;;;;;8.07;7.03;;;17.50;93.00;;;;;;5017658;28;20177;-71
2021/06/08 06:30:43;;;;;;;11.50;7.88;;;17.70;92.70;;;;;;5025140;28;20176;-70
2021/06/08 06:33:08;;;;;;;10.27;7.72;;;17.80;92.30;;;;;;5031381;28;20576;-71
2021/06/08 06:35:34;;;;;;;9.30;6.85;;;18.00;92.60;;;;;;5017210;28;20173;-72
2021/06/08 06:38:06;;;;;;;9.52;7.70;;;18.10;92.30;;;;;;5028976;28;20184;-70
2021/06/08 06:40:33;;;;;;;8.10;6.90;;;18.30;91.70;;;;;;5018242;28;20259;-71
2021/06/08 06:43:05;;;;;;;8.95;7.53;;;18.40;91.10;;;;;;5024121;28;20630;-71
2021/06/08 06:45:36;;;;;;;8.13;7.43;;;18.60;90.70;;;;;;5030532;28;20180;-70
2021/06/08 06:48:04;;;;;;;8.13;7.20;;;18.70;89.80;;;;;;5030327;28;20718;-70
2021/06/08 06:50:35;;;;;;;8.90;7.35;;;18.80;89.80;;;;;;5027217;28;20190;-70
2021/06/08 06:53:01;;;;;;;12.30;7.88;;;19.00;89.20;;;;;;5028710;28;20234;-71
2021/06/08 06:55:29;;;;;;;8.80;7.93;;;19.00;89.30;;;;;;5028251;28;20184;-71
2021/06/08 06:57:56;;;;;;;8.30;7.07;;;19.20;89.10;;;;;;5028722;28;20190;-69
2021/06/08 07:00:23;;;;;;;7.93;7.20;;;19.20;87.20;;;;;;5028800;28;20553;-70
2021/06/08 07:02:51;;;;;;;8.52;7.57;;;19.20;87.20;;;;;;5028658;28;20276;-71
2021/06/08 07:05:20;;;;;;;7.47;6.75;;;19.20;86.60;;;;;;5028301;28;20177;-70
2021/06/08 07:07:48;;;;;;;8.10;7.22;;;19.30;86.60;;;;;;5028643;28;20625;-71
2021/06/08 07:10:16;;;;;;;7.60;6.90;;;19.30;87.60;;;;;;5026775;28;20184;-70
2021/06/08 07:12:44;;;;;;;7.18;5.93;;;19.30;87.10;;;;;;5028538;28;20212;-70
2021/06/08 07:15:10;;;;;;;10.98;7.25;;;19.30;87.00;;;;;;5027992;28;20282;-71
2021/06/08 07:17:38;;;;;;;12.82;6.80;;;19.40;87.50;;;;;;5028149;28;20212;-71
2021/06/08 07:20:07;;;;;;;9.02;6.50;;;19.40;87.50;;;;;;5026202;28;20757;-70
2021/06/08 07:22:34;;;;;;;7.63;5.03;;;19.40;87.40;;;;;;5021060;28;20556;-70
2021/06/08 07:25:02;;;;;;;5.43;5.03;;;19.50;87.00;;;;;;5028016;28;20236;-71
2021/06/08 07:27:28;;;;;;;10.20;5.82;;;19.50;86.90;;;;;;5028047;28;20669;-70
2021/06/08 07:32:57;;;;;;;5.28;4.88;;;19.50;86.20;;;;;;5022859;28;20218;-71
2021/06/08 07:35:34;;;;;;;6.82;5.20;;;19.50;86.40;;;;;;5027908;28;20213;-70
2021/06/08 07:38:08;;;;;;;8.45;5.38;;;19.50;86.60;;;;;;5029821;28;20566;-71
2021/06/08 07:40:41;;;;;;;7.10;5.88;;;19.50;86.70;;;;;;5025149;28;20196;-70
2021/06/08 07:43:10;;;;;;;9.80;6.70;;;19.50;86.50;;;;;;5023270;28;20369;-70
2021/06/08 07:45:40;;;;;;;8.15;5.90;;;19.50;86.50;;;;;;5030312;28;20662;-70
2021/06/08 07:48:12;;;;;;;8.30;5.65;;;19.50;86.50;;;;;;5030335;28;20184;-71
2021/06/08 07:50:39;;;;;;;7.88;5.60;;;19.60;86.70;;;;;;5020698;28;20181;-70
2021/06/08 07:53:06;;;;;;;5.97;5.47;;;19.60;86.70;;;;;;5026915;28;20223;-71
2021/06/08 07:55:33;;;;;;;5.60;4.93;;;19.60;86.40;;;;;;5028858;28;20188;-71
2021/06/08 07:57:58;;;;;;;6.78;6.00;;;19.70;85.90;;;;;;5027526;28;20191;-71
2021/06/08 08:00:25;;;;;;;5.78;5.30;;;19.70;85.10;;;;;;5023185;28;20571;-70
2021/06/08 08:02:55;;;;;;;6.10;5.63;;;19.70;85.40;;;;;;5028643;28;20176;-72
2021/06/08 08:05:23;;;;;;;6.68;5.63;;;19.70;84.80;;;;;;5029895;28;20662;-70
2021/06/08 08:07:52;;;;;;;5.38;4.95;;;19.70;84.90;;;;;;5025631;28;20550;-71
2021/06/08 08:10:22;;;;;;;5.97;5.45;;;19.70;85.50;;;;;;5029472;28;20186;-69
2021/06/08 08:12:48;;;;;;;6.63;6.07;;;19.80;85.20;;;;;;5027837;28;20208;-70
2021/06/08 08:15:16;;;;;;;7.40;6.72;;;19.80;85.70;;;;;;5025571;28;20651;-70
2021/06/08 08:17:43;;;;;;;6.53;5.85;;;19.90;85.60;;;;;;5020775;28;20665;-71
2021/06/08 08:20:09;;;;;;;6.82;6.18;;;19.90;85.60;;;;;;5026406;28;20204;-70
2021/06/08 08:22:36;;;;;;;7.60;6.90;;;20.00;85.60;;;;;;5026882;28;20195;-70
2021/06/08 08:25:03;;;;;;;9.02;6.85;;;20.00;83.90;;;;;;5026711;28;20234;-69
2021/06/08 08:27:29;;;;;;;6.25;5.85;;;20.00;83.60;;;;;;5027185;28;20696;-70
2021/06/08 08:29:54;;;;;;;5.25;4.78;;;20.00;83.10;;;;;;5028339;28;20184;-71
2021/06/08 08:32:22;;;;;;;5.05;4.55;;;20.10;82.70;;;;;;5024949;28;20219;-69
2021/06/08 08:34:48;;;;;;;10.30;4.78;;;20.10;83.50;;;;;;5024219;28;20195;-70
2021/06/08 08:37:13;;;;;;;3.97;3.65;;;20.20;84.10;;;;;;5020062;28;20173;-70
2021/06/08 08:39:39;;;;;;;3.33;2.97;;;20.30;84.10;;;;;;5022291;28;20192;-70
2021/06/08 08:42:06;;;;;;;3.47;3.28;;;20.30;83.50;;;;;;5028508;28;20219;-70
2021/06/08 08:44:32;;;;;;;3.45;3.10;;;20.40;82.20;;;;;;5023076;28;20176;-70
2021/06/08 08:46:58;;;;;;;3.65;3.45;;;20.50;81.60;;;;;;5029169;28;20180;-68
2021/06/08 08:49:26;;;;;;;3.13;3.03;;;20.50;79.90;;;;;;5023090;28;20195;-70
2021/06/08 08:51:52;;;;;;;3.88;3.67;;;20.60;80.00;;;;;;5021673;28;20314;-70
2021/06/08 08:54:20;;;;;;;3.55;3.33;;;20.60;79.30;;;;;;5015175;28;20256;-71
2021/06/08 08:56:48;;;;;;;3.70;3.58;;;20.60;79.30;;;;;;5027641;28;20184;-71
2021/06/08 08:59:16;;;;;;;4.78;4.25;;;20.60;79.20;;;;;;5028165;28;20266;-69
2021/06/08 09:01:45;;;;;;;7.28;4.20;;;20.60;79.20;;;;;;5028678;28;20181;-70
2021/06/08 09:44:36;;;;;;;4.25;3.95;;;22.70;75.30;;;;;;5015190;28;20267;-72
2021/06/08 09:47:02;;;;;;;3.25;3.15;;;22.80;76.20;;;;;;5021379;28;20219;-71
2021/06/08 09:49:30;;;;;;;3.50;3.33;;;23.00;76.70;;;;;;5020980;28;20187;-70
2021/06/08 09:51:59;;;;;;;3.58;3.20;;;23.10;74.90;;;;;;5021668;28;20181;-70
2021/06/08 09:54:38;;;;;;;4.10;3.80;;;23.20;76.40;;;;;;5027113;28;20602;-70
2021/06/08 09:57:12;;;;;;;3.75;3.45;;;23.30;76.60;;;;;;5025648;28;20183;-70
2021/06/08 09:59:59;;;;;;;4.60;4.20;;;23.50;74.80;;;;;;5027327;28;20607;-71
2021/06/08 10:02:49;;;;;;;3.20;3.10;;;23.60;73.90;;;;;;5019513;28;20172;-70
2021/06/08 10:05:35;;;;;;;3.75;3.45;;;23.70;74.00;;;;;;5017742;28;20181;-70
2021/06/08 10:08:00;;;;;;;3.78;3.67;;;23.80;73.90;;;;;;5018266;28;20563;-69
2021/06/08 10:10:46;;;;;;;4.20;4.00;;;23.90;73.90;;;;;;5021588;28;20181;-69
2021/06/08 10:13:14;;;;;;;3.15;3.05;;;24.00;73.20;;;;;;5018318;28;20295;-69
2021/06/08 10:15:52;;;;;;;3.45;3.35;;;24.30;71.10;;;;;;5024191;28;20188;-70
2021/06/08 10:18:19;;;;;;;3.15;3.05;;;24.40;70.40;;;;;;5027693;28;20204;-71
2021/06/08 10:20:56;;;;;;;3.25;3.05;;;24.60;71.90;;;;;;5026227;28;20184;-71
2021/06/08 10:23:30;;;;;;;3.65;3.45;;;24.90;71.40;;;;;;5026433;28;20183;-70
2021/06/08 10:26:02;;;;;;;3.03;2.92;;;25.20;72.10;;;;;;5021232;28;20226;-71
2021/06/08 10:28:28;;;;;;;3.22;3.08;;;25.80;69.30;;;;;;5021654;28;20189;-72
2021/06/08 10:30:56;;;;;;;3.22;3.13;;;26.40;68.80;;;;;;5023588;28;20180;-70
2021/06/08 10:33:23;;;;;;;6.00;3.40;;;26.90;67.00;;;;;;5016681;28;20219;-70
2021/06/08 10:35:49;;;;;;;3.60;3.17;;;27.30;66.60;;;;;;5017318;28;20275;-70
2021/06/08 10:38:16;;;;;;;2.92;2.83;;;27.90;64.60;;;;;;5025378;28;21047;-71
2021/06/08 10:40:43;;;;;;;2.95;2.85;;;28.60;62.70;;;;;;5021922;28;20658;-70
2021/06/08 10:43:27;;;;;;;3.40;3.10;;;29.40;61.90;;;;;;5027331;28;20189;-70
2021/06/08 10:45:55;;;;;;;2.92;2.75;;;30.10;61.10;;;;;;5033246;28;20194;-69
2021/06/08 10:48:31;;;;;;;3.22;3.00;;;30.70;60.10;;;;;;5027063;28;20224;-69
2021/06/08 10:51:14;;;;;;;2.60;2.50;;;31.50;57.90;;;;;;5023774;28;20205;-70
2021/06/08 10:53:47;;;;;;;2.75;2.55;;;32.10;55.60;;;;;;5017668;28;20236;-70
2021/06/08 10:56:24;;;;;;;3.22;3.03;;;32.10;55.60;;;;;;5018450;28;20280;-70
2021/06/08 10:59:21;;;;;;;6.63;6.10;;;31.80;55.00;;;;;;5018528;28;20799;-70
2021/06/08 11:01:47;;;;;;;3.78;3.63;;;31.20;56.30;;;;;;5025294;28;20343;-69
2021/06/08 11:04:23;;;;;;;5.80;5.40;;;30.70;58.10;;;;;;5019687;28;20192;-69
2021/06/08 11:06:52;;;;;;;6.25;5.05;;;30.50;58.00;;;;;;5017433;28;20184;-69
2021/06/08 11:09:18;;;;;;;3.33;2.97;;;30.00;60.90;;;;;;5018873;28;20285;-69
2021/06/08 11:11:56;;;;;;;4.00;3.80;;;29.50;61.60;;;;;;5021965;28;20196;-69
2021/06/08 11:14:55;;;;;;;5.07;4.72;;;28.80;61.30;;;;;;5008537;28;20208;-68
2021/06/08 11:17:33;;;;;;;2.85;2.78;;;27.80;62.40;;;;;;5024673;28;20199;-69
2021/06/08 11:20:12;;;;;;;3.60;3.30;;;27.00;63.40;;;;;;5026075;28;20213;-68
2021/06/08 11:22:40;;;;;;;3.45;3.28;;;26.30;65.80;;;;;;5026744;28;20208;-69
2021/06/08 11:25:27;;;;;;;2.88;2.35;;;25.80;66.10;;;;;;5022844;28;20646;-71
2021/06/08 11:28:01;;;;;;;5.30;2.40;;;25.50;67.80;;;;;;5024939;28;20199;-67
2021/06/08 11:30:38;;;;;;;4.63;2.15;;;25.10;70.50;;;;;;5016374;28;20195;-69
2021/06/08 11:33:25;;;;;;;1.85;1.85;;;24.90;70.90;;;;;;5020483;28;20220;-70
2021/06/08 11:35:51;;;;;;;2.00;1.95;;;24.80;70.80;;;;;;5024991;28;20180;-70
2021/06/08 11:38:23;;;;;;;2.38;2.35;;;24.70;70.80;;;;;;5028014;28;20290;-69
2021/06/08 11:40:53;;;;;;;2.50;2.40;;;24.70;71.00;;;;;;5025261;28;20209;-69
2021/06/08 11:43:19;;;;;;;2.15;2.05;;;24.80;71.00;;;;;;5028856;28;20196;-70
2021/06/08 11:45:47;;;;;;;2.17;2.05;;;24.80;70.10;;;;;;5027503;28;20712;-69
2021/06/08 11:48:31;;;;;;;1.90;1.88;;;24.90;71.10;;;;;;5024822;28;20199;-71
2021/06/08 11:50:58;;;;;;;2.13;1.95;;;25.10;69.00;;;;;;5024527;28;20275;-71
2021/06/08 11:53:24;;;;;;;1.30;1.30;;;25.40;67.70;;;;;;5019516;28;20215;-70
2021/06/08 11:56:10;;;;;;;2.53;2.33;;;25.70;67.10;;;;;;5024225;28;21669;-70
2021/06/08 11:58:37;;;;;;;2.65;1.77;;;26.40;66.70;;;;;;5021295;28;20191;-70
2021/06/08 12:01:05;;;;;;;1.50;1.50;;;27.10;65.10;;;;;;5026685;28;20640;-70
2021/06/08 12:03:36;;;;;;;1.73;1.73;;;27.80;64.40;;;;;;5024676;28;20180;-70
2021/06/08 12:06:04;;;;;;;1.80;1.80;;;28.40;63.50;;;;;;5024066;28;20639;-70
2021/06/08 12:08:36;;;;;;;1.90;1.90;;;28.70;61.30;;;;;;5023328;28;21852;-72
2021/06/08 12:11:15;;;;;;;1.77;1.75;;;28.70;61.30;;;;;;5017240;28;20743;-69
2021/06/08 12:13:42;;;;;;;2.08;2.08;;;28.60;61.60;;;;;;5025868;28;20689;-69
2021/06/08 12:16:12;;;;;;;1.67;1.63;;;28.60;62.10;;;;;;5023783;28;20195;-69
2021/06/08 12:18:38;;;;;;;2.10;2.10;;;28.50;62.70;;;;;;5026818;28;20180;-70
2021/06/08 12:21:18;;;;;;;2.25;2.15;;;28.40;61.50;;;;;;5025204;28;20560;-69
2021/06/08 12:23:44;;;;;;;2.03;1.92;;;28.40;62.10;;;;;;5021878;28;20188;-69
2021/06/08 12:26:21;;;;;;;2.15;2.15;;;28.40;61.90;;;;;;5026014;28;20188;-69
2021/06/08 12:29:10;;;;;;;2.00;1.90;;;28.40;60.50;;;;;;5025401;28;20246;-69
2021/06/08 12:31:37;;;;;;;1.80;1.80;;;28.70;60.10;;;;;;5027136;28;20192;-69
2021/06/08 12:34:10;;;;;;;2.00;2.00;;;29.40;59.40;;;;;;5025977;28;20227;-69
2021/06/08 12:36:43;;;;;;;1.65;1.65;;;30.10;58.00;;;;;;5030754;28;20255;-70
2021/06/08 12:39:14;;;;;;;1.95;1.85;;;30.80;57.40;;;;;;5025804;28;20195;-69
2021/06/08 12:41:40;;;;;;;1.70;1.70;;;31.80;55.70;;;;;;5026936;28;20358;-70
2021/06/08 12:44:06;;;;;;;1.80;1.80;;;32.40;55.00;;;;;;5022651;28;20603;-68
2021/06/08 12:46:36;;;;;;;1.95;1.95;;;32.80;56.00;;;;;;5026037;28;20196;-68
2021/06/08 12:49:17;;;;;;;4.15;1.88;;;32.80;55.40;;;;;;5024979;28;20191;-68
2021/06/08 12:51:56;;;;;;;1.67;1.67;;;32.70;54.20;;;;;;5020603;28;20854;-68
2021/06/08 12:54:40;;;;;;;2.20;2.10;;;32.70;54.00;;;;;;5025078;28;20644;-68
2021/06/08 12:57:08;;;;;;;5.78;2.40;;;32.80;54.50;;;;;;5034927;28;20197;-69
2021/06/08 12:59:42;;;;;;;1.85;1.85;;;32.80;56.00;;;;;;5022796;28;20215;-69
2021/06/08 13:02:11;;;;;;;1.85;1.85;;;32.90;55.70;;;;;;5024022;28;20237;-70
2021/06/08 13:04:42;;;;;;;1.95;1.85;;;33.30;53.00;;;;;;5024040;28;20249;-69
2021/06/08 13:07:13;;;;;;;1.55;1.55;;;33.90;52.70;;;;;;5023441;28;20186;-69
2021/06/08 13:09:39;;;;;;;1.55;1.40;;;34.60;51.90;;;;;;5020731;28;20669;-70
2021/06/08 13:12:06;;;;;;;1.27;1.27;;;35.30;49.40;;;;;;5023772;28;20749;-70
2021/06/08 13:14:32;;;;;;;1.50;1.50;;;36.00;50.50;;;;;;5024965;28;20193;-69
2021/06/08 13:16:58;;;;;;;1.40;1.40;;;36.30;49.60;;;;;;5023135;28;20184;-69
2021/06/08 13:19:26;;;;;;;1.20;1.20;;;36.70;49.50;;;;;;5023102;28;20850;-69
2021/06/08 13:21:55;;;;;;;1.40;1.40;;;36.70;49.20;;;;;;5024306;28;20172;-69
2021/06/08 13:24:24;;;;;;;1.55;1.55;;;36.50;49.30;;;;;;5025320;28;20191;-72
2021/06/08 13:26:52;;;;;;;1.42;1.42;;;36.10;48.20;;;;;;5023314;28;20182;-71
2021/06/08 13:29:23;;;;;;;1.70;1.70;;;36.10;49.00;;;;;;5020164;28;20206;-69
2021/06/08 13:31:55;;;;;;;1.95;1.60;;;36.20;47.70;;;;;;5021769;28;20741;-69
2021/06/08 13:34:28;;;;;;;1.63;1.63;;;36.20;48.70;;;;;;5020736;28;20768;-70
2021/06/08 13:37:02;;;;;;;1.42;1.42;;;36.30;48.60;;;;;;5022979;28;20191;-70
2021/06/08 13:39:39;;;;;;;1.70;1.60;;;36.20;47.70;;;;;;5022539;28;20178;-70
2021/06/08 13:42:31;;;;;;;1.67;1.40;;;35.70;48.80;;;;;;5023880;28;20206;-68